Time;durP1;ratioP1;P1;durP2;ratioP2;P2;SDS_P1;SDS_P2;PMS_P1;PMS_P2;Temp;Humidity;BMP_temperature;BMP_pressure;BME280_temperature;BME280_humidity;BME280_pressure;Samples;Min_cycle;Max_cycle;Signal;HPM_P1;HPM_P2
2022/07/02 00:01:46;;;;;;;3.03;2.00;;;;;;;;;;4955249;28;20202;-78
2022/07/02 00:04:16;;;;;;;2.17;1.97;;;;;;;;;;4958529;29;20194;-79
2022/07/02 00:06:45;;;;;;;2.40;1.93;;;;;;;;;;4959077;28;20644;-79
2022/07/02 00:09:15;;;;;;;2.80;2.20;;;;;;;;;;4958150;29;20203;-79
2022/07/02 00:11:44;;;;;;;3.33;2.20;;;;;;;;;;4958831;28;20206;-79
2022/07/02 00:14:12;;;;;;;3.23;2.10;;;;;;;;;;4958421;28;20624;-78
2022/07/02 00:16:41;;;;;;;2.50;2.30;;;;;;;;;;4957956;28;20237;-78
2022/07/02 00:19:09;;;;;;;2.60;2.17;;;;;;;;;;4958122;28;20298;-78
2022/07/02 00:21:39;;;;;;;2.83;2.13;;;;;;;;;;4957867;28;20214;-79
2022/07/02 00:24:08;;;;;;;2.40;2.20;;;;;;;;;;4957883;29;20186;-79
2022/07/02 00:26:39;;;;;;;4.47;2.50;;;;;;;;;;4957732;28;20214;-79
2022/07/02 00:29:12;;;;;;;4.47;2.53;;;;;;;;;;4958261;29;20186;-79
2022/07/02 00:31:41;;;;;;;3.87;2.40;;;;;;;;;;4958160;29;20191;-78
2022/07/02 00:34:10;;;;;;;2.57;2.37;;;;;;;;;;4958005;29;20209;-79
2022/07/02 00:36:39;;;;;;;4.80;2.80;;;;;;;;;;4957790;29;20223;-78
2022/07/02 00:39:07;;;;;;;4.57;3.10;;;;;;;;;;4957825;29;20674;-78
2022/07/02 00:41:36;;;;;;;2.93;2.60;;;;;;;;;;4957916;29;20214;-78
2022/07/02 00:44:07;;;;;;;3.03;2.23;;;;;;;;;;4957754;28;20238;-78
2022/07/02 00:46:36;;;;;;;4.80;2.70;;;;;;;;;;4957936;29;20188;-79
2022/07/02 00:49:05;;;;;;;3.23;2.70;;;;;;;;;;4957864;29;20198;-78
2022/07/02 00:51:34;;;;;;;3.33;2.67;;;;;;;;;;4957357;28;20266;-79
2022/07/02 00:54:03;;;;;;;3.53;2.80;;;;;;;;;;4957495;29;20682;-78
2022/07/02 00:56:31;;;;;;;2.63;2.27;;;;;;;;;;4957296;28;20222;-78
2022/07/02 00:59:00;;;;;;;2.97;2.70;;;;;;;;;;4957321;28;20238;-79
2022/07/02 01:01:30;;;;;;;3.10;2.80;;;;;;;;;;4957497;28;20210;-78
2022/07/02 01:03:59;;;;;;;3.50;2.90;;;;;;;;;;4957315;28;20241;-78
2022/07/02 01:06:28;;;;;;;3.20;2.60;;;;;;;;;;4957196;29;20578;-78
2022/07/02 01:11:45;;;;;;;4.70;3.20;;;;;;;;;;4957351;28;20194;-79
2022/07/02 01:14:14;;;;;;;3.40;3.10;;;;;;;;;;4956658;28;20644;-78
2022/07/02 01:16:44;;;;;;;3.20;2.87;;;;;;;;;;4956850;28;20230;-78
2022/07/02 01:19:16;;;;;;;4.03;2.80;;;;;;;;;;4956899;29;20206;-78
2022/07/02 01:21:59;;;;;;;5.13;2.77;;;;;;;;;;4957520;29;20238;-78
2022/07/02 01:24:29;;;;;;;3.27;3.03;;;;;;;;;;4956603;28;20595;-79
2022/07/02 01:26:57;;;;;;;6.53;3.47;;;;;;;;;;4957118;29;20199;-78
2022/07/02 01:29:26;;;;;;;4.80;2.90;;;;;;;;;;4956930;29;20557;-78
2022/07/02 01:31:54;;;;;;;4.27;3.00;;;;;;;;;;4956961;29;20286;-78
2022/07/02 01:34:23;;;;;;;3.87;3.20;;;;;;;;;;4956565;28;20276;-78
2022/07/02 01:36:51;;;;;;;3.53;3.23;;;;;;;;;;4956874;29;20227;-78
2022/07/02 01:39:24;;;;;;;4.67;3.50;;;;;;;;;;4956531;29;20198;-78
2022/07/02 01:41:54;;;;;;;3.87;3.33;;;;;;;;;;4956728;29;20190;-78
2022/07/02 01:44:22;;;;;;;4.97;3.47;;;;;;;;;;4956719;29;20320;-79
2022/07/02 01:46:51;;;;;;;3.50;3.17;;;;;;;;;;4956804;28;20206;-78
2022/07/02 01:49:19;;;;;;;4.60;3.27;;;;;;;;;;4956382;29;20213;-78
2022/07/02 01:51:48;;;;;;;3.33;3.10;;;;;;;;;;4956335;29;20214;-79
2022/07/02 01:54:16;;;;;;;4.40;3.13;;;;;;;;;;4956677;29;20207;-78
2022/07/02 01:56:45;;;;;;;4.40;3.10;;;;;;;;;;4956421;28;20683;-78
2022/07/02 01:59:14;;;;;;;4.77;3.30;;;;;;;;;;4956433;28;20660;-79
2022/07/02 02:01:43;;;;;;;3.60;3.30;;;;;;;;;;4956308;28;20549;-78
2022/07/02 02:04:12;;;;;;;3.87;3.53;;;;;;;;;;4956062;29;20202;-78
2022/07/02 02:06:40;;;;;;;4.93;3.30;;;;;;;;;;4956103;29;20293;-78
2022/07/02 02:09:09;;;;;;;5.73;3.20;;;;;;;;;;4956160;29;20738;-78
2022/07/02 02:11:37;;;;;;;4.73;3.00;;;;;;;;;;4956461;29;20207;-78
2022/07/02 02:14:06;;;;;;;7.53;3.40;;;;;;;;;;4956120;28;20214;-78
2022/07/02 02:16:36;;;;;;;3.30;3.00;;;;;;;;;;4955806;28;20222;-78
2022/07/02 02:19:05;;;;;;;3.53;3.07;;;;;;;;;;4956382;29;20218;-78
2022/07/02 02:21:34;;;;;;;3.20;2.83;;;;;;;;;;4956311;28;20237;-78
2022/07/02 02:24:02;;;;;;;4.17;3.17;;;;;;;;;;4956008;29;20214;-79
2022/07/02 02:26:31;;;;;;;3.20;2.90;;;;;;;;;;4955934;28;20207;-79
2022/07/02 02:28:59;;;;;;;2.90;2.70;;;;;;;;;;4956048;28;20661;-79
2022/07/02 02:31:28;;;;;;;3.70;2.63;;;;;;;;;;4955922;29;20214;-79
2022/07/02 02:33:58;;;;;;;3.83;2.70;;;;;;;;;;4955798;28;20253;-78
2022/07/02 02:36:26;;;;;;;3.87;2.90;;;;;;;;;;4956093;29;20584;-79
2022/07/02 02:38:55;;;;;;;6.20;3.10;;;;;;;;;;4955887;28;20675;-79
2022/07/02 02:41:23;;;;;;;3.50;3.00;;;;;;;;;;4955580;29;20215;-78
2022/07/02 02:43:52;;;;;;;3.80;2.80;;;;;;;;;;4955567;29;20623;-78
2022/07/02 02:46:20;;;;;;;4.83;2.87;;;;;;;;;;4955344;29;20238;-78
2022/07/02 02:48:49;;;;;;;3.30;2.90;;;;;;;;;;4955957;28;20203;-78
2022/07/02 02:51:18;;;;;;;3.43;3.17;;;;;;;;;;4955223;28;20210;-78
2022/07/02 02:53:48;;;;;;;4.20;3.10;;;;;;;;;;4955636;29;20210;-78
2022/07/02 02:56:16;;;;;;;5.23;3.20;;;;;;;;;;4955352;28;20662;-79
2022/07/02 02:58:44;;;;;;;3.77;3.20;;;;;;;;;;4955639;28;20206;-78
2022/07/02 03:01:13;;;;;;;4.60;3.40;;;;;;;;;;4955636;28;20206;-79
2022/07/02 03:03:41;;;;;;;4.57;3.30;;;;;;;;;;4955609;29;20577;-79
2022/07/02 03:06:10;;;;;;;3.50;3.20;;;;;;;;;;4955461;29;20273;-78
2022/07/02 03:08:40;;;;;;;6.83;2.90;;;;;;;;;;4955177;29;20205;-78
2022/07/02 03:11:08;;;;;;;4.67;2.97;;;;;;;;;;4955269;28;20251;-78
2022/07/02 03:13:36;;;;;;;3.70;2.90;;;;;;;;;;4955086;29;20206;-78
2022/07/02 03:16:07;;;;;;;3.70;2.90;;;;;;;;;;4955384;28;20719;-78
2022/07/02 03:18:35;;;;;;;3.47;3.17;;;;;;;;;;4955009;29;20253;-78
2022/07/02 03:21:04;;;;;;;4.77;3.10;;;;;;;;;;4955195;29;20664;-78
2022/07/02 03:23:32;;;;;;;4.63;3.20;;;;;;;;;;4955512;28;20202;-78
2022/07/02 03:26:02;;;;;;;3.93;3.40;;;;;;;;;;4955105;29;20230;-78
2022/07/02 03:28:31;;;;;;;5.97;3.77;;;;;;;;;;4955156;29;20237;-78
2022/07/02 03:30:59;;;;;;;4.43;3.10;;;;;;;;;;4955260;28;20206;-78
2022/07/02 03:33:28;;;;;;;5.20;3.00;;;;;;;;;;4954975;29;20627;-78
2022/07/02 03:35:56;;;;;;;3.57;2.87;;;;;;;;;;4955208;28;20229;-78
2022/07/02 03:38:25;;;;;;;4.73;2.87;;;;;;;;;;4957716;29;20218;-78
2022/07/02 03:40:53;;;;;;;6.73;2.97;;;;;;;;;;4958911;29;20210;-78
2022/07/02 03:43:23;;;;;;;4.93;3.13;;;;;;;;;;4958999;29;20206;-78
2022/07/02 03:45:51;;;;;;;4.93;3.10;;;;;;;;;;4958872;28;20722;-78
2022/07/02 03:48:20;;;;;;;5.27;3.50;;;;;;;;;;4958547;29;20203;-78
2022/07/02 03:50:48;;;;;;;4.07;3.47;;;;;;;;;;4958493;28;20218;-79
2022/07/02 03:53:17;;;;;;;4.50;3.37;;;;;;;;;;4958807;28;20217;-78
2022/07/02 03:55:45;;;;;;;5.07;3.20;;;;;;;;;;4958635;28;20226;-78
2022/07/02 03:58:14;;;;;;;6.40;3.50;;;;;;;;;;4958502;28;20230;-78
2022/07/02 04:00:44;;;;;;;5.60;3.50;;;;;;;;;;4958601;28;20210;-79
2022/07/02 04:03:12;;;;;;;4.93;3.20;;;;;;;;;;4958263;28;20206;-78
2022/07/02 04:05:41;;;;;;;5.40;3.17;;;;;;;;;;4958328;28;20230;-78
2022/07/02 04:08:15;;;;;;;5.57;3.47;;;;;;;;;;4957980;29;20190;-78
2022/07/02 04:10:44;;;;;;;3.97;3.10;;;;;;;;;;4957904;28;20210;-78
2022/07/02 04:13:12;;;;;;;5.70;3.40;;;;;;;;;;4958771;28;20210;-78
2022/07/02 04:15:41;;;;;;;4.77;3.63;;;;;;;;;;4958198;28;20566;-78
2022/07/02 04:18:11;;;;;;;8.80;3.80;;;;;;;;;;4957589;28;20257;-78
2022/07/02 04:20:39;;;;;;;7.47;3.77;;;;;;;;;;4958225;28;20299;-78
2022/07/02 04:23:08;;;;;;;10.53;3.83;;;;;;;;;;4958205;28;20210;-78
2022/07/02 04:25:37;;;;;;;5.27;3.53;;;;;;;;;;4957737;28;20227;-78
2022/07/02 04:28:07;;;;;;;7.77;3.40;;;;;;;;;;4958095;28;20652;-78
2022/07/02 04:30:35;;;;;;;4.63;3.50;;;;;;;;;;4958026;28;20577;-78
2022/07/02 04:33:04;;;;;;;8.53;3.70;;;;;;;;;;4958424;28;20222;-78
2022/07/02 04:35:33;;;;;;;8.40;3.60;;;;;;;;;;4958167;28;20222;-78
2022/07/02 04:38:02;;;;;;;4.90;3.50;;;;;;;;;;4957876;28;20222;-78
2022/07/02 04:40:30;;;;;;;8.63;3.53;;;;;;;;;;4957805;28;20210;-79
2022/07/02 04:42:59;;;;;;;8.13;3.73;;;;;;;;;;4957415;29;20214;-78
2022/07/02 04:45:27;;;;;;;8.23;3.80;;;;;;;;;;4957779;28;20600;-78
2022/07/02 04:47:56;;;;;;;5.40;3.80;;;;;;;;;;4945374;29;20205;-78
2022/07/02 04:50:24;;;;;;;7.10;3.70;;;;;;;;;;4938198;29;20215;-78
2022/07/02 04:52:54;;;;;;;8.47;3.40;;;;;;;;;;4940682;29;20684;-78
2022/07/02 04:55:22;;;;;;;11.07;3.93;;;;;;;;;;4957573;28;20289;-78
2022/07/02 04:57:51;;;;;;;7.47;3.53;;;;;;;;;;4957557;28;20297;-78
2022/07/02 05:00:19;;;;;;;7.57;3.60;;;;;;;;;;4957600;28;20690;-78
2022/07/02 05:02:48;;;;;;;4.70;3.40;;;;;;;;;;4957450;28;20265;-78
2022/07/02 05:05:16;;;;;;;11.73;3.73;;;;;;;;;;4957392;28;20350;-78
2022/07/02 05:07:45;;;;;;;7.03;3.50;;;;;;;;;;4956852;28;20595;-78
2022/07/02 05:10:14;;;;;;;8.10;3.60;;;;;;;;;;4956865;28;20206;-78
2022/07/02 05:12:43;;;;;;;10.80;3.60;;;;;;;;;;4957491;28;20682;-78
2022/07/02 05:15:11;;;;;;;8.70;3.67;;;;;;;;;;4957144;28;20258;-78
2022/07/02 05:17:40;;;;;;;9.87;2.80;;;;;;;;;;4956915;28;20214;-78
2022/07/02 05:20:09;;;;;;;10.77;3.47;;;;;;;;;;4957634;28;20559;-78
2022/07/02 05:22:41;;;;;;;7.23;3.60;;;;;;;;;;4957017;28;20205;-78
2022/07/02 05:25:10;;;;;;;6.53;3.53;;;;;;;;;;4956942;28;20242;-78
2022/07/02 05:27:40;;;;;;;6.40;3.30;;;;;;;;;;4956835;28;20218;-78
2022/07/02 05:30:08;;;;;;;7.43;3.07;;;;;;;;;;4957360;28;20232;-78
2022/07/02 05:32:37;;;;;;;10.83;3.30;;;;;;;;;;4956900;28;20597;-78
2022/07/02 05:35:06;;;;;;;8.63;3.17;;;;;;;;;;4956783;28;20644;-78
2022/07/02 05:37:34;;;;;;;5.77;2.63;;;;;;;;;;4956780;28;20202;-78
2022/07/02 05:40:03;;;;;;;4.90;2.50;;;;;;;;;;4956719;28;20237;-78
2022/07/02 05:42:32;;;;;;;3.80;2.40;;;;;;;;;;4956469;28;20210;-78
2022/07/02 05:45:02;;;;;;;7.13;2.47;;;;;;;;;;4956308;28;20230;-78
2022/07/02 05:47:30;;;;;;;5.73;2.37;;;;;;;;;;4956639;28;20680;-79
2022/07/02 05:49:59;;;;;;;3.57;2.50;;;;;;;;;;4956369;28;20218;-79
2022/07/02 05:52:27;;;;;;;2.90;2.00;;;;;;;;;;4956518;28;20648;-78
2022/07/02 05:54:55;;;;;;;5.43;2.00;;;;;;;;;;4956078;28;20718;-78
2022/07/02 05:57:24;;;;;;;2.33;2.13;;;;;;;;;;4956413;28;20210;-79
2022/07/02 05:59:52;;;;;;;3.43;2.17;;;;;;;;;;4955655;28;20222;-78
2022/07/02 06:02:22;;;;;;;4.70;2.00;;;;;;;;;;4956281;28;20566;-78
2022/07/02 06:04:51;;;;;;;2.57;1.97;;;;;;;;;;4955841;28;20258;-78
2022/07/02 06:10:06;;;;;;;4.30;1.73;;;;;;;;;;4956251;28;20241;-79
2022/07/02 06:12:34;;;;;;;3.47;2.03;;;;;;;;;;4956087;28;20214;-79
2022/07/02 06:15:03;;;;;;;3.50;1.87;;;;;;;;;;4956074;28;20225;-78
2022/07/02 06:17:33;;;;;;;4.13;2.17;;;;;;;;;;4956029;28;20707;-79
2022/07/02 06:20:01;;;;;;;4.60;2.00;;;;;;;;;;4956016;28;20230;-79
2022/07/02 06:22:29;;;;;;;5.37;2.20;;;;;;;;;;4956190;28;20262;-79
2022/07/02 06:24:58;;;;;;;4.00;1.70;;;;;;;;;;4955773;28;20595;-78
2022/07/02 06:27:33;;;;;;;2.53;1.50;;;;;;;;;;4956093;28;20214;-79
2022/07/02 06:30:02;;;;;;;3.40;1.77;;;;;;;;;;4955919;28;20186;-78
2022/07/02 06:32:30;;;;;;;2.28;1.50;;;;;;;;;;4955562;28;20214;-78
2022/07/02 06:35:00;;;;;;;2.92;1.70;;;;;;;;;;4955824;28;20723;-78
2022/07/02 06:37:28;;;;;;;3.55;1.70;;;;;;;;;;4955642;28;20206;-79
2022/07/02 06:39:57;;;;;;;2.53;1.75;;;;;;;;;;4955557;28;20222;-78
2022/07/02 06:42:28;;;;;;;3.17;1.65;;;;;;;;;;4955912;28;20203;-78
2022/07/02 06:44:58;;;;;;;3.53;1.80;;;;;;;;;;4955666;28;20573;-78
2022/07/02 06:47:27;;;;;;;2.05;1.40;;;;;;;;;;4955870;28;20215;-79
2022/07/02 06:49:56;;;;;;;3.20;1.38;;;;;;;;;;4955203;28;20233;-78
2022/07/02 06:52:26;;;;;;;3.72;1.50;;;;;;;;;;4955691;28;20588;-78
2022/07/02 06:54:55;;;;;;;2.33;1.80;;;;;;;;;;4955758;28;20230;-78
2022/07/02 06:57:24;;;;;;;3.33;1.73;;;;;;;;;;4955213;28;20210;-78
2022/07/02 06:59:53;;;;;;;1.70;1.60;;;;;;;;;;4955768;28;20688;-79
2022/07/02 07:02:22;;;;;;;3.00;1.50;;;;;;;;;;4955421;28;20221;-78
2022/07/02 07:04:51;;;;;;;5.10;1.50;;;;;;;;;;4955177;28;20230;-78
2022/07/02 07:07:25;;;;;;;3.55;1.52;;;;;;;;;;4955349;28;20218;-78
2022/07/02 07:09:55;;;;;;;3.63;1.70;;;;;;;;;;4936217;28;20617;-78
2022/07/02 07:12:24;;;;;;;4.22;1.52;;;;;;;;;;4938086;29;20183;-78
2022/07/02 07:14:52;;;;;;;2.10;1.45;;;;;;;;;;4939872;29;20227;-78
2022/07/02 07:17:21;;;;;;;4.20;1.38;;;;;;;;;;4940256;29;20566;-78
2022/07/02 07:19:49;;;;;;;1.80;1.38;;;;;;;;;;4940225;29;20301;-78
2022/07/02 07:22:17;;;;;;;2.30;1.23;;;;;;;;;;4939956;29;20269;-78
2022/07/02 07:24:46;;;;;;;3.55;1.30;;;;;;;;;;4939798;29;20223;-79
2022/07/02 07:27:18;;;;;;;2.00;1.38;;;;;;;;;;4950585;29;20210;-78
2022/07/02 07:29:46;;;;;;;3.78;1.45;;;;;;;;;;4953064;28;20290;-78
2022/07/02 07:32:15;;;;;;;4.13;1.70;;;;;;;;;;4940051;29;20207;-78
2022/07/02 07:34:43;;;;;;;4.32;1.48;;;;;;;;;;4939583;29;20223;-78
2022/07/02 07:37:13;;;;;;;3.15;1.50;;;;;;;;;;4940055;29;20297;-78
2022/07/02 07:39:42;;;;;;;2.80;1.30;;;;;;;;;;4941708;29;20226;-79
2022/07/02 07:42:10;;;;;;;2.80;1.33;;;;;;;;;;4959328;29;20210;-79
2022/07/02 07:44:40;;;;;;;3.47;1.45;;;;;;;;;;4958639;29;20234;-78
2022/07/02 07:47:09;;;;;;;2.30;1.15;;;;;;;;;;4958955;29;20654;-78
2022/07/02 07:49:37;;;;;;;4.40;1.48;;;;;;;;;;4958278;28;20207;-78
2022/07/02 07:52:07;;;;;;;3.53;1.38;;;;;;;;;;4958777;28;20190;-78
2022/07/02 07:54:38;;;;;;;2.40;1.20;;;;;;;;;;4960470;28;20227;-74
2022/07/02 07:57:11;;;;;;;3.85;1.52;;;;;;;;;;4961943;28;20209;-75
2022/07/02 07:59:41;;;;;;;4.43;1.42;;;;;;;;;;4959010;28;20223;-75
2022/07/02 08:02:09;;;;;;;2.50;1.20;;;;;;;;;;4957872;28;20630;-76
2022/07/02 08:04:38;;;;;;;2.55;1.00;;;;;;;;;;4958079;29;20222;-75
2022/07/02 08:07:07;;;;;;;2.95;1.23;;;;;;;;;;4958097;28;20210;-75
2022/07/02 08:09:35;;;;;;;1.90;1.30;;;;;;;;;;4958467;29;20681;-75
2022/07/02 08:12:04;;;;;;;2.33;1.30;;;;;;;;;;4958247;28;20206;-75
2022/07/02 08:14:32;;;;;;;2.05;1.20;;;;;;;;;;4957998;29;20230;-75
2022/07/02 08:17:02;;;;;;;3.33;1.30;;;;;;;;;;4956502;28;20639;-76
2022/07/02 08:19:31;;;;;;;2.92;1.20;;;;;;;;;;4957696;28;20604;-76
2022/07/02 08:21:59;;;;;;;4.68;1.60;;;;;;;;;;4958115;28;20211;-75
2022/07/02 08:24:29;;;;;;;3.15;1.40;;;;;;;;;;4957546;28;20230;-75
2022/07/02 08:26:57;;;;;;;3.60;1.50;;;;;;;;;;4957732;28;20206;-75
2022/07/02 08:29:25;;;;;;;3.58;1.52;;;;;;;;;;4958020;28;20210;-75
2022/07/02 08:31:54;;;;;;;5.82;1.45;;;;;;;;;;4957094;28;20207;-75
2022/07/02 08:34:24;;;;;;;3.40;1.45;;;;;;;;;;4957840;28;20238;-75
2022/07/02 08:36:52;;;;;;;2.92;1.40;;;;;;;;;;4957655;28;20613;-76
2022/07/02 08:39:20;;;;;;;2.65;1.30;;;;;;;;;;4957827;28;20207;-75
2022/07/02 08:41:50;;;;;;;4.45;1.70;;;;;;;;;;4957472;28;20206;-74
2022/07/02 08:44:21;;;;;;;2.30;1.70;;;;;;;;;;4957526;28;20211;-75
2022/07/02 08:46:51;;;;;;;3.00;1.58;;;;;;;;;;4956472;28;20206;-75
2022/07/02 08:49:20;;;;;;;2.47;1.58;;;;;;;;;;4957681;28;20640;-75
2022/07/02 08:51:55;;;;;;;2.58;1.55;;;;;;;;;;4957383;28;20218;-75
2022/07/02 08:54:24;;;;;;;4.22;1.50;;;;;;;;;;4957233;28;20229;-75
2022/07/02 08:56:53;;;;;;;2.22;1.35;;;;;;;;;;4957233;28;20202;-76
2022/07/02 08:59:21;;;;;;;3.85;1.42;;;;;;;;;;4957352;28;20270;-75
2022/07/02 09:01:50;;;;;;;3.90;1.58;;;;;;;;;;4956322;28;20223;-75
2022/07/02 09:04:20;;;;;;;4.22;1.58;;;;;;;;;;4957375;29;20656;-75
2022/07/02 09:06:52;;;;;;;2.13;1.42;;;;;;;;;;4957222;28;20214;-75
2022/07/02 09:09:20;;;;;;;4.57;1.60;;;;;;;;;;4957069;28;20210;-75
2022/07/02 09:11:49;;;;;;;3.25;1.50;;;;;;;;;;4956963;28;20214;-76
2022/07/02 09:14:18;;;;;;;2.67;1.50;;;;;;;;;;4957579;28;20579;-75
2022/07/02 09:16:47;;;;;;;3.05;1.48;;;;;;;;;;4956250;29;20211;-75
2022/07/02 09:19:16;;;;;;;2.28;1.45;;;;;;;;;;4956677;29;20203;-75
2022/07/02 09:21:47;;;;;;;2.70;1.55;;;;;;;;;;4957036;28;20230;-75
2022/07/02 09:24:28;;;;;;;1.88;1.42;;;;;;;;;;4956552;28;20191;-75
2022/07/02 09:27:00;;;;;;;4.38;1.90;;;;;;;;;;4956826;29;20206;-75
2022/07/02 09:29:30;;;;;;;2.83;1.50;;;;;;;;;;4956887;28;20210;-75
2022/07/02 09:31:58;;;;;;;3.92;1.40;;;;;;;;;;4957621;28;20202;-75
2022/07/02 09:34:27;;;;;;;2.33;1.35;;;;;;;;;;4955118;28;20231;-75
2022/07/02 09:36:56;;;;;;;1.92;1.20;;;;;;;;;;4956516;28;20683;-75
2022/07/02 09:39:30;;;;;;;2.40;1.17;;;;;;;;;;4956674;28;20606;-74
2022/07/02 09:41:59;;;;;;;3.65;1.30;;;;;;;;;;4956301;28;20221;-75
2022/07/02 09:44:27;;;;;;;1.77;1.20;;;;;;;;;;4956299;28;20226;-75
2022/07/02 09:46:57;;;;;;;1.63;1.10;;;;;;;;;;4956562;28;20306;-75
2022/07/02 09:49:25;;;;;;;4.53;1.30;;;;;;;;;;4948487;28;20215;-75
2022/07/02 09:51:54;;;;;;;2.63;1.30;;;;;;;;;;4937135;29;20747;-75
2022/07/02 09:54:24;;;;;;;2.00;1.02;;;;;;;;;;4936938;29;20223;-75
2022/07/02 09:56:54;;;;;;;1.05;0.90;;;;;;;;;;4937050;29;20207;-75
2022/07/02 09:59:23;;;;;;;3.47;1.17;;;;;;;;;;4936958;29;20584;-75
2022/07/02 10:01:52;;;;;;;2.63;1.10;;;;;;;;;;4936868;29;20242;-75
2022/07/02 10:04:28;;;;;;;1.13;0.90;;;;;;;;;;4949324;29;20230;-75
2022/07/02 10:06:58;;;;;;;2.80;1.05;;;;;;;;;;4956078;28;20675;-76
2022/07/02 10:09:27;;;;;;;3.17;1.10;;;;;;;;;;4955978;28;20207;-75
2022/07/02 10:11:58;;;;;;;2.20;1.00;;;;;;;;;;4956107;28;20214;-75
2022/07/02 10:14:27;;;;;;;2.75;1.20;;;;;;;;;;4955671;28;20226;-75
2022/07/02 10:16:56;;;;;;;2.75;1.10;;;;;;;;;;4955939;28;20213;-75
2022/07/02 10:19:25;;;;;;;1.58;1.15;;;;;;;;;;4955327;28;20213;-74
2022/07/02 10:21:53;;;;;;;2.22;1.10;;;;;;;;;;4955978;28;20560;-75
2022/07/02 10:24:25;;;;;;;2.40;1.05;;;;;;;;;;4955567;28;20230;-75
2022/07/02 10:26:57;;;;;;;1.65;1.10;;;;;;;;;;4955737;28;20214;-75
2022/07/02 10:29:26;;;;;;;1.25;0.85;;;;;;;;;;4955842;28;20586;-74
2022/07/02 10:32:01;;;;;;;3.38;1.10;;;;;;;;;;4955444;28;20206;-75
2022/07/02 10:34:37;;;;;;;4.90;1.25;;;;;;;;;;4936538;29;20226;-75
2022/07/02 10:37:06;;;;;;;1.85;1.10;;;;;;;;;;4936100;29;20217;-75
2022/07/02 10:39:41;;;;;;;1.20;1.08;;;;;;;;;;4936184;29;20211;-74
2022/07/02 10:42:11;;;;;;;1.35;1.10;;;;;;;;;;4936246;29;20230;-74
2022/07/02 10:44:39;;;;;;;2.60;1.05;;;;;;;;;;4936447;29;20227;-75
2022/07/02 10:47:17;;;;;;;3.03;1.13;;;;;;;;;;4938839;29;20222;-75
2022/07/02 10:49:46;;;;;;;1.85;1.13;;;;;;;;;;4954983;28;20715;-75
2022/07/02 10:52:38;;;;;;;1.95;0.95;;;;;;;;;;4955400;29;20213;-75
2022/07/02 10:55:06;;;;;;;2.63;1.30;;;;;;;;;;4955515;28;20226;-75
2022/07/02 10:57:36;;;;;;;2.65;1.20;;;;;;;;;;4955013;28;20705;-75
2022/07/02 11:00:06;;;;;;;2.38;0.80;;;;;;;;;;4955419;28;20229;-75
2022/07/02 11:02:35;;;;;;;2.38;0.90;;;;;;;;;;4954729;28;20226;-75
2022/07/02 11:05:11;;;;;;;1.33;0.90;;;;;;;;;;4954951;28;20257;-75
2022/07/02 11:07:46;;;;;;;2.40;1.02;;;;;;;;;;4954932;28;20731;-75
2022/07/02 11:10:14;;;;;;;2.15;1.08;;;;;;;;;;4954994;28;20206;-75
2022/07/02 11:12:47;;;;;;;2.40;0.77;;;;;;;;;;4955053;28;20202;-75
2022/07/02 11:15:19;;;;;;;1.23;0.73;;;;;;;;;;4954977;28;20249;-75
2022/07/02 11:17:50;;;;;;;1.77;1.00;;;;;;;;;;4955542;28;20206;-75
2022/07/02 11:20:24;;;;;;;1.25;1.00;;;;;;;;;;4941044;29;20211;-75
2022/07/02 11:22:52;;;;;;;0.95;0.90;;;;;;;;;;4946432;29;20683;-75
2022/07/02 11:25:21;;;;;;;2.13;0.88;;;;;;;;;;4955222;29;20226;-75
2022/07/02 11:27:58;;;;;;;2.13;1.00;;;;;;;;;;4955140;28;20676;-74
2022/07/02 11:30:27;;;;;;;5.13;1.10;;;;;;;;;;4955406;28;20691;-75
2022/07/02 11:32:55;;;;;;;1.45;1.10;;;;;;;;;;4955011;28;20269;-75
2022/07/02 11:35:24;;;;;;;3.22;1.10;;;;;;;;;;4954055;28;20289;-75
2022/07/02 11:37:56;;;;;;;2.88;1.05;;;;;;;;;;4955108;28;20297;-74
2022/07/02 11:40:26;;;;;;;2.92;1.02;;;;;;;;;;4954985;29;20194;-75
2022/07/02 11:42:55;;;;;;;2.72;0.98;;;;;;;;;;4955181;28;20251;-75
2022/07/02 11:45:25;;;;;;;2.97;0.93;;;;;;;;;;4954696;29;20230;-75
2022/07/02 11:47:53;;;;;;;1.35;1.00;;;;;;;;;;4955089;28;20690;-76
2022/07/02 11:50:28;;;;;;;1.67;1.15;;;;;;;;;;4953877;28;20214;-75
2022/07/02 11:52:57;;;;;;;0.70;0.70;;;;;;;;;;4954832;28;20261;-76
2022/07/02 11:55:26;;;;;;;2.13;0.93;;;;;;;;;;4954663;28;20222;-76
2022/07/02 11:57:54;;;;;;;2.33;0.98;;;;;;;;;;4955216;28;20217;-75
2022/07/02 12:00:29;;;;;;;1.40;0.93;;;;;;;;;;4958142;28;20211;-75
2022/07/02 12:02:58;;;;;;;1.00;0.90;;;;;;;;;;4958243;28;20233;-75
2022/07/02 12:05:26;;;;;;;1.65;0.88;;;;;;;;;;4957751;28;20254;-75
2022/07/02 12:07:55;;;;;;;1.23;1.00;;;;;;;;;;4958581;28;20206;-76
2022/07/02 12:10:23;;;;;;;3.22;0.90;;;;;;;;;;4958293;28;20206;-76
2022/07/02 12:12:52;;;;;;;1.95;1.08;;;;;;;;;;4957828;28;20569;-75
2022/07/02 12:15:20;;;;;;;2.03;1.05;;;;;;;;;;4957847;28;20233;-75
2022/07/02 12:17:51;;;;;;;2.53;0.93;;;;;;;;;;4958024;28;20676;-75
2022/07/02 12:20:19;;;;;;;0.95;0.70;;;;;;;;;;4957279;28;20214;-75
2022/07/02 12:22:54;;;;;;;3.05;1.00;;;;;;;;;;4957738;28;20245;-75
2022/07/02 12:25:23;;;;;;;1.00;0.90;;;;;;;;;;4957649;28;20226;-75
2022/07/02 12:27:54;;;;;;;1.33;0.88;;;;;;;;;;4957697;28;20211;-76
2022/07/02 12:30:22;;;;;;;1.17;0.80;;;;;;;;;;4958136;28;20221;-75
2022/07/02 12:32:55;;;;;;;2.30;0.90;;;;;;;;;;4957737;28;20207;-76
2022/07/02 12:35:24;;;;;;;3.22;0.88;;;;;;;;;;4956900;28;20591;-76
2022/07/02 12:37:58;;;;;;;2.53;0.90;;;;;;;;;;4957317;28;20211;-75
2022/07/02 12:40:26;;;;;;;1.33;0.93;;;;;;;;;;4957914;28;20233;-76
2022/07/02 12:42:57;;;;;;;1.38;0.90;;;;;;;;;;4957710;28;20231;-76
2022/07/02 12:45:26;;;;;;;2.65;0.95;;;;;;;;;;4957413;28;20230;-76
2022/07/02 12:48:00;;;;;;;1.45;0.82;;;;;;;;;;4957352;28;20217;-76
2022/07/02 12:50:29;;;;;;;2.50;1.13;;;;;;;;;;4956326;28;20225;-75
2022/07/02 12:53:02;;;;;;;4.05;1.30;;;;;;;;;;4957719;28;20266;-75
2022/07/02 12:55:31;;;;;;;1.38;1.00;;;;;;;;;;4957641;28;20226;-75
2022/07/02 12:58:05;;;;;;;1.70;0.88;;;;;;;;;;4957124;29;20205;-75
2022/07/02 13:00:34;;;;;;;0.80;0.80;;;;;;;;;;4956391;28;20214;-76
2022/07/02 13:03:06;;;;;;;3.22;1.00;;;;;;;;;;4956819;28;20629;-77
2022/07/02 13:05:35;;;;;;;1.70;1.00;;;;;;;;;;4956969;28;20234;-75
2022/07/02 13:08:03;;;;;;;1.85;0.90;;;;;;;;;;4957200;28;20203;-75
2022/07/02 13:10:32;;;;;;;2.35;1.00;;;;;;;;;;4955873;28;20664;-75
2022/07/02 13:13:01;;;;;;;1.50;1.15;;;;;;;;;;4957190;28;20207;-76
2022/07/02 13:15:29;;;;;;;1.95;1.10;;;;;;;;;;4956187;28;20699;-76
2022/07/02 13:17:58;;;;;;;1.05;0.80;;;;;;;;;;4957093;28;20607;-75
2022/07/02 13:20:28;;;;;;;1.90;0.93;;;;;;;;;;4957221;28;20217;-75
2022/07/02 13:22:56;;;;;;;2.28;1.00;;;;;;;;;;4957033;28;20230;-76
2022/07/02 13:25:25;;;;;;;1.50;0.90;;;;;;;;;;4956828;28;20231;-75
2022/07/02 13:27:53;;;;;;;1.42;1.05;;;;;;;;;;4956506;28;20265;-75
2022/07/02 13:30:22;;;;;;;1.15;1.05;;;;;;;;;;4956039;28;20211;-75
2022/07/02 13:32:50;;;;;;;1.10;1.00;;;;;;;;;;4956389;28;20206;-75
2022/07/02 13:35:19;;;;;;;1.73;0.88;;;;;;;;;;4956543;29;20273;-76
2022/07/02 13:37:49;;;;;;;1.20;0.75;;;;;;;;;;4956911;28;20206;-76
2022/07/02 13:40:18;;;;;;;3.00;1.20;;;;;;;;;;4956599;28;20213;-75
2022/07/02 13:42:46;;;;;;;1.42;1.23;;;;;;;;;;4956705;28;20322;-76
2022/07/02 13:45:15;;;;;;;1.83;0.77;;;;;;;;;;4955382;29;20254;-75
2022/07/02 13:47:45;;;;;;;0.90;0.90;;;;;;;;;;4956282;29;20273;-76
2022/07/02 13:50:14;;;;;;;1.92;1.02;;;;;;;;;;4956421;28;20213;-76
2022/07/02 13:52:43;;;;;;;1.70;1.00;;;;;;;;;;4956384;28;20210;-76
2022/07/02 13:55:12;;;;;;;0.82;0.82;;;;;;;;;;4956089;28;20239;-76
2022/07/02 13:57:41;;;;;;;2.25;1.00;;;;;;;;;;4956234;28;20206;-75
2022/07/02 14:00:10;;;;;;;1.15;0.90;;;;;;;;;;4955751;28;20688;-76
2022/07/02 14:02:38;;;;;;;3.30;1.10;;;;;;;;;;4956289;29;20297;-75
2022/07/02 14:05:07;;;;;;;1.05;0.98;;;;;;;;;;4955869;29;20293;-76
2022/07/02 14:07:36;;;;;;;2.15;0.80;;;;;;;;;;4956138;29;20627;-76
2022/07/02 14:10:04;;;;;;;1.20;0.80;;;;;;;;;;4956248;28;20214;-76
2022/07/02 14:12:34;;;;;;;0.80;0.80;;;;;;;;;;4956134;29;20245;-76
2022/07/02 14:15:02;;;;;;;0.73;0.73;;;;;;;;;;4955312;29;20222;-76
2022/07/02 14:17:31;;;;;;;1.77;1.00;;;;;;;;;;4955805;28;20225;-75
2022/07/02 14:20:00;;;;;;;1.58;0.95;;;;;;;;;;4955593;28;20218;-76
2022/07/02 14:22:34;;;;;;;2.30;1.00;;;;;;;;;;4955321;28;20210;-75
2022/07/02 14:25:02;;;;;;;0.90;0.88;;;;;;;;;;4955649;28;20707;-75
2022/07/02 14:27:31;;;;;;;2.47;1.30;;;;;;;;;;4955670;28;20268;-75
2022/07/02 14:30:01;;;;;;;0.60;0.60;;;;;;;;;;4955278;28;20217;-76
2022/07/02 14:32:30;;;;;;;1.45;1.35;;;;;;;;;;4955517;28;20712;-76
2022/07/02 14:34:58;;;;;;;1.75;0.80;;;;;;;;;;4955508;28;20252;-76
2022/07/02 14:37:29;;;;;;;2.35;0.90;;;;;;;;;;4955425;28;20214;-76
2022/07/02 14:39:57;;;;;;;1.15;0.98;;;;;;;;;;4955402;28;20297;-76
2022/07/02 14:42:26;;;;;;;2.03;0.90;;;;;;;;;;4955573;28;20215;-76
2022/07/02 14:44:56;;;;;;;0.80;0.80;;;;;;;;;;4953171;29;20284;-76
2022/07/02 14:47:26;;;;;;;0.93;0.80;;;;;;;;;;4955461;28;20218;-76
2022/07/02 14:49:55;;;;;;;0.85;0.80;;;;;;;;;;4955604;28;20281;-75
2022/07/02 14:52:24;;;;;;;1.17;0.77;;;;;;;;;;4955407;28;20302;-75
2022/07/02 14:54:52;;;;;;;1.00;0.90;;;;;;;;;;4955039;28;20230;-74
2022/07/02 14:57:20;;;;;;;0.90;0.82;;;;;;;;;;4954624;28;20233;-76
2022/07/02 14:59:49;;;;;;;2.03;1.20;;;;;;;;;;4955089;28;20206;-75
2022/07/02 15:02:18;;;;;;;1.77;0.70;;;;;;;;;;4955312;28;20261;-75